sensor_id;sensor_type;location;lat;lon;timestamp;pressure;altitude;pressure_sealevel;temperature;humidity
32747;BME280;19118;50.860;13.662;2022-09-21T00:00:15;97680.19;;;7.13;100.00
32747;BME280;19118;50.860;13.662;2022-09-21T00:05:15;97677.94;;;7.18;100.00
32747;BME280;19118;50.860;13.662;2022-09-21T00:10:17;97683.53;;;7.15;100.00
32747;BME280;19118;50.860;13.662;2022-09-21T00:15:19;97686.16;;;7.23;100.00
32747;BME280;19118;50.860;13.662;2022-09-21T00:20:19;97680.06;;;7.23;100.00
32747;BME280;19118;50.860;13.662;2022-09-21T00:25:20;97677.97;;;7.26;100.00
32747;BME280;19118;50.860;13.662;2022-09-21T00:30:21;97672.72;;;7.26;100.00
32747;BME280;19118;50.860;13.662;2022-09-21T00:35:21;97672.88;;;7.25;100.00
32747;BME280;19118;50.860;13.662;2022-09-21T00:40:22;97677.59;;;7.21;100.00
32747;BME280;19118;50.860;13.662;2022-09-21T00:45:22;97674.81;;;7.15;100.00
32747;BME280;19118;50.860;13.662;2022-09-21T00:50:23;97684.34;;;7.16;100.00
32747;BME280;19118;50.860;13.662;2022-09-21T00:55:28;97689.47;;;7.25;100.00
32747;BME280;19118;50.860;13.662;2022-09-21T01:00:31;97693.06;;;7.24;100.00
32747;BME280;19118;50.860;13.662;2022-09-21T01:05:31;97684.19;;;7.17;100.00
32747;BME280;19118;50.860;13.662;2022-09-21T01:11:07;97681.69;;;7.08;100.00
32747;BME280;19118;50.860;13.662;2022-09-21T01:16:25;97681.47;;;7.01;100.00
32747;BME280;19118;50.860;13.662;2022-09-21T01:21:33;97685.09;;;7.00;100.00
32747;BME280;19118;50.860;13.662;2022-09-21T01:26:50;97690.03;;;7.03;100.00
32747;BME280;19118;50.860;13.662;2022-09-21T01:32:13;97697.72;;;6.96;100.00
32747;BME280;19118;50.860;13.662;2022-09-21T01:37:25;97703.84;;;7.05;100.00
32747;BME280;19118;50.860;13.662;2022-09-21T01:42:31;97696.25;;;7.02;100.00
32747;BME280;19118;50.860;13.662;2022-09-21T01:47:35;97705.50;;;7.06;100.00
32747;BME280;19118;50.860;13.662;2022-09-21T01:52:41;97697.13;;;7.11;100.00
32747;BME280;19118;50.860;13.662;2022-09-21T01:57:51;97701.56;;;7.10;100.00
32747;BME280;19118;50.860;13.662;2022-09-21T02:03:00;97703.22;;;7.11;100.00
32747;BME280;19118;50.860;13.662;2022-09-21T02:08:04;97706.31;;;7.07;100.00
32747;BME280;19118;50.860;13.662;2022-09-21T02:13:05;97700.56;;;7.03;100.00
32747;BME280;19118;50.860;13.662;2022-09-21T02:18:16;97703.22;;;7.11;100.00
32747;BME280;19118;50.860;13.662;2022-09-21T02:23:41;97706.00;;;7.10;100.00
32747;BME280;19118;50.860;13.662;2022-09-21T02:29:03;97704.16;;;7.02;100.00
32747;BME280;19118;50.860;13.662;2022-09-21T02:34:12;97705.56;;;6.80;100.00
32747;BME280;19118;50.860;13.662;2022-09-21T02:39:28;97707.75;;;6.41;100.00
32747;BME280;19118;50.860;13.662;2022-09-21T02:44:37;97708.91;;;6.21;100.00
32747;BME280;19118;50.860;13.662;2022-09-21T02:49:44;97710.38;;;6.15;100.00
32747;BME280;19118;50.860;13.662;2022-09-21T02:54:48;97722.94;;;6.11;100.00
32747;BME280;19118;50.860;13.662;2022-09-21T02:59:49;97724.59;;;6.30;100.00
32747;BME280;19118;50.860;13.662;2022-09-21T03:04:51;97730.06;;;6.37;100.00
32747;BME280;19118;50.860;13.662;2022-09-21T03:09:51;97735.41;;;6.53;100.00
32747;BME280;19118;50.860;13.662;2022-09-21T03:14:52;97749.44;;;6.62;100.00
32747;BME280;19118;50.860;13.662;2022-09-21T03:19:52;97748.00;;;6.67;100.00
32747;BME280;19118;50.860;13.662;2022-09-21T03:24:56;97748.38;;;6.72;100.00
32747;BME280;19118;50.860;13.662;2022-09-21T03:29:56;97746.88;;;6.70;100.00
32747;BME280;19118;50.860;13.662;2022-09-21T03:34:56;97745.44;;;6.76;100.00
32747;BME280;19118;50.860;13.662;2022-09-21T03:39:57;97741.97;;;6.75;100.00
32747;BME280;19118;50.860;13.662;2022-09-21T03:44:59;97748.94;;;6.84;100.00
32747;BME280;19118;50.860;13.662;2022-09-21T03:49:59;97742.75;;;6.93;100.00
32747;BME280;19118;50.860;13.662;2022-09-21T03:54:59;97744.84;;;6.90;100.00
32747;BME280;19118;50.860;13.662;2022-09-21T04:00:01;97747.28;;;6.83;100.00
32747;BME280;19118;50.860;13.662;2022-09-21T04:05:05;97742.22;;;6.90;100.00
32747;BME280;19118;50.860;13.662;2022-09-21T04:10:07;97745.66;;;6.82;100.00
32747;BME280;19118;50.860;13.662;2022-09-21T04:15:17;97750.91;;;6.82;100.00
32747;BME280;19118;50.860;13.662;2022-09-21T04:20:21;97750.06;;;6.82;100.00
32747;BME280;19118;50.860;13.662;2022-09-21T04:25:22;97752.03;;;6.80;100.00
32747;BME280;19118;50.860;13.662;2022-09-21T04:30:22;97751.00;;;6.72;100.00
32747;BME280;19118;50.860;13.662;2022-09-21T04:35:22;97753.56;;;6.64;100.00
32747;BME280;19118;50.860;13.662;2022-09-21T04:40:23;97753.88;;;6.61;100.00
32747;BME280;19118;50.860;13.662;2022-09-21T04:45:23;97761.38;;;6.56;100.00
32747;BME280;19118;50.860;13.662;2022-09-21T04:50:23;97765.81;;;6.56;100.00
32747;BME280;19118;50.860;13.662;2022-09-21T04:55:36;97767.13;;;6.52;100.00
32747;BME280;19118;50.860;13.662;2022-09-21T05:00:36;97762.69;;;6.52;100.00
32747;BME280;19118;50.860;13.662;2022-09-21T05:05:37;97769.75;;;6.52;100.00
32747;BME280;19118;50.860;13.662;2022-09-21T05:10:37;97776.88;;;6.59;100.00
32747;BME280;19118;50.860;13.662;2022-09-21T05:15:37;97792.22;;;6.72;100.00
32747;BME280;19118;50.860;13.662;2022-09-21T05:20:38;97784.84;;;6.76;100.00
32747;BME280;19118;50.860;13.662;2022-09-21T05:25:38;97793.16;;;6.89;100.00
32747;BME280;19118;50.860;13.662;2022-09-21T05:30:39;97804.06;;;7.02;100.00
32747;BME280;19118;50.860;13.662;2022-09-21T05:40:53;97804.34;;;7.17;100.00
32747;BME280;19118;50.860;13.662;2022-09-21T05:46:01;97812.16;;;7.35;100.00
32747;BME280;19118;50.860;13.662;2022-09-21T06:02:05;97823.38;;;7.37;100.00
32747;BME280;19118;50.860;13.662;2022-09-21T06:07:07;97831.53;;;7.25;100.00
32747;BME280;19118;50.860;13.662;2022-09-21T06:12:08;97830.00;;;7.49;100.00
32747;BME280;19118;50.860;13.662;2022-09-21T06:17:10;97831.81;;;7.48;100.00
32747;BME280;19118;50.860;13.662;2022-09-21T06:22:10;97831.38;;;7.61;100.00
32747;BME280;19118;50.860;13.662;2022-09-21T06:27:11;97827.81;;;7.78;100.00
32747;BME280;19118;50.860;13.662;2022-09-21T06:32:11;97839.22;;;8.03;100.00
32747;BME280;19118;50.860;13.662;2022-09-21T06:37:11;97837.78;;;8.09;100.00
32747;BME280;19118;50.860;13.662;2022-09-21T06:42:12;97831.22;;;8.29;100.00
32747;BME280;19118;50.860;13.662;2022-09-21T06:47:12;97829.97;;;8.50;100.00
32747;BME280;19118;50.860;13.662;2022-09-21T06:52:12;97835.22;;;8.90;100.00
32747;BME280;19118;50.860;13.662;2022-09-21T06:57:13;97839.53;;;8.67;100.00
32747;BME280;19118;50.860;13.662;2022-09-21T07:02:14;97836.38;;;9.12;100.00
32747;BME280;19118;50.860;13.662;2022-09-21T07:07:14;97846.13;;;9.59;100.00
32747;BME280;19118;50.860;13.662;2022-09-21T07:12:15;97842.56;;;9.44;100.00
32747;BME280;19118;50.860;13.662;2022-09-21T07:17:15;97848.84;;;9.43;100.00
32747;BME280;19118;50.860;13.662;2022-09-21T07:22:15;97854.94;;;9.43;100.00
32747;BME280;19118;50.860;13.662;2022-09-21T07:27:16;97858.59;;;9.81;100.00
32747;BME280;19118;50.860;13.662;2022-09-21T07:32:16;97854.38;;;10.03;100.00
32747;BME280;19118;50.860;13.662;2022-09-21T07:37:16;97857.50;;;9.68;100.00
32747;BME280;19118;50.860;13.662;2022-09-21T07:42:18;97866.13;;;10.01;100.00
32747;BME280;19118;50.860;13.662;2022-09-21T07:47:19;97864.59;;;10.06;100.00
32747;BME280;19118;50.860;13.662;2022-09-21T07:52:19;97864.53;;;10.31;100.00
32747;BME280;19118;50.860;13.662;2022-09-21T07:57:20;97872.09;;;10.34;100.00
32747;BME280;19118;50.860;13.662;2022-09-21T08:02:39;97873.91;;;11.02;99.51
32747;BME280;19118;50.860;13.662;2022-09-21T08:07:39;97873.97;;;10.94;96.58
32747;BME280;19118;50.860;13.662;2022-09-21T08:12:39;97877.19;;;10.66;99.00
32747;BME280;19118;50.860;13.662;2022-09-21T08:17:40;97872.34;;;11.75;96.42
32747;BME280;19118;50.860;13.662;2022-09-21T08:22:40;97877.81;;;11.44;96.87
32747;BME280;19118;50.860;13.662;2022-09-21T08:27:40;97876.38;;;11.56;95.86
32747;BME280;19118;50.860;13.662;2022-09-21T08:32:41;97886.97;;;12.00;93.25
32747;BME280;19118;50.860;13.662;2022-09-21T08:37:41;97885.94;;;11.27;94.97
32747;BME280;19118;50.860;13.662;2022-09-21T08:42:56;97886.66;;;11.21;96.62
32747;BME280;19118;50.860;13.662;2022-09-21T08:48:02;97890.59;;;10.88;97.14
32747;BME280;19118;50.860;13.662;2022-09-21T08:58:29;97894.94;;;11.56;98.78
32747;BME280;19118;50.860;13.662;2022-09-21T09:09:07;97892.91;;;11.58;95.05
32747;BME280;19118;50.860;13.662;2022-09-21T09:14:39;97897.03;;;11.75;93.16
32747;BME280;19118;50.860;13.662;2022-09-21T09:19:50;97894.38;;;12.19;91.59
32747;BME280;19118;50.860;13.662;2022-09-21T09:24:58;97886.13;;;13.29;88.16
32747;BME280;19118;50.860;13.662;2022-09-21T09:30:03;97879.84;;;13.37;88.08
32747;BME280;19118;50.860;13.662;2022-09-21T09:46:11;97891.22;;;12.88;88.44
32747;BME280;19118;50.860;13.662;2022-09-21T09:51:15;97881.75;;;13.22;86.96
32747;BME280;19118;50.860;13.662;2022-09-21T09:56:17;97894.28;;;12.85;88.11
32747;BME280;19118;50.860;13.662;2022-09-21T10:01:43;97894.03;;;12.08;88.49
32747;BME280;19118;50.860;13.662;2022-09-21T10:06:45;97887.31;;;12.84;85.35
32747;BME280;19118;50.860;13.662;2022-09-21T10:11:45;97884.16;;;12.74;85.82
32747;BME280;19118;50.860;13.662;2022-09-21T10:16:49;97880.09;;;14.24;82.91
32747;BME280;19118;50.860;13.662;2022-09-21T10:21:56;97881.03;;;13.97;83.10
32747;BME280;19118;50.860;13.662;2022-09-21T10:27:03;97881.44;;;13.94;82.69
32747;BME280;19118;50.860;13.662;2022-09-21T10:32:22;97873.72;;;14.12;81.05
32747;BME280;19118;50.860;13.662;2022-09-21T10:37:27;97872.78;;;13.51;84.89
32747;BME280;19118;50.860;13.662;2022-09-21T10:42:36;97869.94;;;13.59;83.83
32747;BME280;19118;50.860;13.662;2022-09-21T10:47:43;97871.47;;;13.40;82.75
32747;BME280;19118;50.860;13.662;2022-09-21T10:52:45;97864.84;;;13.57;81.30
32747;BME280;19118;50.860;13.662;2022-09-21T10:57:46;97865.28;;;14.56;79.42
32747;BME280;19118;50.860;13.662;2022-09-21T11:02:47;97874.47;;;13.99;80.41
32747;BME280;19118;50.860;13.662;2022-09-21T11:08:11;97870.50;;;13.48;81.29
32747;BME280;19118;50.860;13.662;2022-09-21T11:18:39;97862.81;;;13.59;79.65
32747;BME280;19118;50.860;13.662;2022-09-21T11:23:57;97853.09;;;13.80;80.61
32747;BME280;19118;50.860;13.662;2022-09-21T11:45:09;97859.44;;;13.16;82.75
32747;BME280;19118;50.860;13.662;2022-09-21T12:01:34;97841.09;;;13.49;81.63
32747;BME280;19118;50.860;13.662;2022-09-21T12:06:53;97844.34;;;12.95;85.63
32747;BME280;19118;50.860;13.662;2022-09-21T12:12:09;97838.56;;;14.23;79.49
32747;BME280;19118;50.860;13.662;2022-09-21T12:22:29;97823.66;;;14.36;77.30
32747;BME280;19118;50.860;13.662;2022-09-21T12:27:43;97825.84;;;14.06;74.84
32747;BME280;19118;50.860;13.662;2022-09-21T12:32:49;97822.88;;;13.87;77.91
32747;BME280;19118;50.860;13.662;2022-09-21T12:38:08;97814.94;;;14.68;71.61
32747;BME280;19118;50.860;13.662;2022-09-21T12:48:35;97819.03;;;15.43;71.20
32747;BME280;19118;50.860;13.662;2022-09-21T12:53:44;97817.00;;;14.79;74.45
32747;BME280;19118;50.860;13.662;2022-09-21T13:04:27;97809.09;;;14.25;78.31
32747;BME280;19118;50.860;13.662;2022-09-21T13:09:30;97804.22;;;14.28;74.93
32747;BME280;19118;50.860;13.662;2022-09-21T13:14:34;97804.47;;;14.47;74.19
32747;BME280;19118;50.860;13.662;2022-09-21T13:19:35;97814.66;;;13.76;77.34
32747;BME280;19118;50.860;13.662;2022-09-21T13:24:35;97801.75;;;14.27;76.81
32747;BME280;19118;50.860;13.662;2022-09-21T13:29:37;97799.38;;;14.78;74.48
32747;BME280;19118;50.860;13.662;2022-09-21T13:34:40;97794.06;;;14.85;73.45
32747;BME280;19118;50.860;13.662;2022-09-21T13:50:42;97796.13;;;13.54;78.85
32747;BME280;19118;50.860;13.662;2022-09-21T13:55:54;97794.78;;;13.02;83.27
32747;BME280;19118;50.860;13.662;2022-09-21T14:01:05;97802.16;;;13.07;84.16
32747;BME280;19118;50.860;13.662;2022-09-21T14:06:19;97788.81;;;12.51;86.95
32747;BME280;19118;50.860;13.662;2022-09-21T14:11:27;97795.16;;;12.78;86.99
32747;BME280;19118;50.860;13.662;2022-09-21T14:21:38;97789.25;;;12.76;83.22
32747;BME280;19118;50.860;13.662;2022-09-21T14:31:39;97780.69;;;13.71;80.82
32747;BME280;19118;50.860;13.662;2022-09-21T14:36:43;97774.88;;;14.09;80.18
32747;BME280;19118;50.860;13.662;2022-09-21T14:41:47;97764.91;;;14.37;77.85
32747;BME280;19118;50.860;13.662;2022-09-21T14:52:37;97771.28;;;13.34;80.60
32747;BME280;19118;50.860;13.662;2022-09-21T14:58:05;97770.16;;;13.15;81.48
32747;BME280;19118;50.860;13.662;2022-09-21T15:08:53;97768.56;;;13.21;80.24
32747;BME280;19118;50.860;13.662;2022-09-21T15:19:25;97789.09;;;11.99;86.05
32747;BME280;19118;50.860;13.662;2022-09-21T15:24:31;97784.66;;;11.55;95.84
32747;BME280;19118;50.860;13.662;2022-09-21T15:29:33;97779.19;;;11.27;100.00
32747;BME280;19118;50.860;13.662;2022-09-21T15:34:33;97773.44;;;11.23;98.39
32747;BME280;19118;50.860;13.662;2022-09-21T15:39:34;97773.09;;;11.26;96.73
32747;BME280;19118;50.860;13.662;2022-09-21T15:44:36;97769.34;;;11.35;98.82
32747;BME280;19118;50.860;13.662;2022-09-21T15:49:37;97770.16;;;11.21;100.00
32747;BME280;19118;50.860;13.662;2022-09-21T15:54:44;97777.38;;;11.27;100.00
32747;BME280;19118;50.860;13.662;2022-09-21T15:59:48;97771.84;;;11.73;100.00
32747;BME280;19118;50.860;13.662;2022-09-21T16:04:48;97770.66;;;11.90;92.97
32747;BME280;19118;50.860;13.662;2022-09-21T16:09:50;97762.22;;;12.02;93.00
32747;BME280;19118;50.860;13.662;2022-09-21T16:14:52;97770.03;;;12.10;94.02
32747;BME280;19118;50.860;13.662;2022-09-21T16:24:58;97773.56;;;11.95;94.42
32747;BME280;19118;50.860;13.662;2022-09-21T16:29:59;97777.16;;;11.88;95.43
32747;BME280;19118;50.860;13.662;2022-09-21T16:35:25;97768.91;;;12.19;89.11
32747;BME280;19118;50.860;13.662;2022-09-21T16:40:30;97774.81;;;12.00;87.60
32747;BME280;19118;50.860;13.662;2022-09-21T16:45:30;97780.19;;;11.70;91.74
32747;BME280;19118;50.860;13.662;2022-09-21T16:50:31;97774.88;;;11.85;89.21
32747;BME280;19118;50.860;13.662;2022-09-21T16:55:31;97777.91;;;11.67;91.34
32747;BME280;19118;50.860;13.662;2022-09-21T17:00:38;97781.66;;;11.58;92.08
32747;BME280;19118;50.860;13.662;2022-09-21T17:05:39;97773.88;;;10.97;94.93
32747;BME280;19118;50.860;13.662;2022-09-21T17:10:44;97783.66;;;10.36;100.00
32747;BME280;19118;50.860;13.662;2022-09-21T17:15:46;97781.78;;;9.91;100.00
32747;BME280;19118;50.860;13.662;2022-09-21T17:20:47;97786.47;;;9.42;100.00
32747;BME280;19118;50.860;13.662;2022-09-21T17:25:48;97785.22;;;9.13;100.00
32747;BME280;19118;50.860;13.662;2022-09-21T17:30:49;97791.56;;;8.71;100.00
32747;BME280;19118;50.860;13.662;2022-09-21T17:35:49;97792.25;;;8.41;100.00
32747;BME280;19118;50.860;13.662;2022-09-21T17:40:51;97788.56;;;8.17;100.00
32747;BME280;19118;50.860;13.662;2022-09-21T17:46:03;97800.25;;;8.07;100.00
32747;BME280;19118;50.860;13.662;2022-09-21T17:51:04;97790.94;;;7.78;100.00
32747;BME280;19118;50.860;13.662;2022-09-21T18:01:19;97805.94;;;7.44;100.00
32747;BME280;19118;50.860;13.662;2022-09-21T18:06:22;97804.56;;;7.32;100.00
32747;BME280;19118;50.860;13.662;2022-09-21T18:16:38;97809.06;;;7.13;100.00
32747;BME280;19118;50.860;13.662;2022-09-21T18:21:42;97812.53;;;6.88;100.00
32747;BME280;19118;50.860;13.662;2022-09-21T18:26:45;97813.44;;;6.79;100.00
32747;BME280;19118;50.860;13.662;2022-09-21T18:37:38;97824.09;;;6.51;100.00
32747;BME280;19118;50.860;13.662;2022-09-21T18:42:47;97817.41;;;6.39;100.00
32747;BME280;19118;50.860;13.662;2022-09-21T18:48:20;97832.34;;;6.56;100.00
32747;BME280;19118;50.860;13.662;2022-09-21T18:53:38;97826.00;;;6.67;100.00
32747;BME280;19118;50.860;13.662;2022-09-21T18:58:44;97828.22;;;6.97;100.00
32747;BME280;19118;50.860;13.662;2022-09-21T19:03:45;97827.47;;;7.13;100.00
32747;BME280;19118;50.860;13.662;2022-09-21T19:09:00;97822.28;;;7.21;100.00
32747;BME280;19118;50.860;13.662;2022-09-21T19:19:32;97824.25;;;6.93;100.00
32747;BME280;19118;50.860;13.662;2022-09-21T19:35:14;97822.22;;;6.61;100.00
32747;BME280;19118;50.860;13.662;2022-09-21T19:40:16;97819.00;;;6.50;100.00
32747;BME280;19118;50.860;13.662;2022-09-21T19:45:24;97815.16;;;6.44;100.00
32747;BME280;19118;50.860;13.662;2022-09-21T19:50:31;97817.41;;;6.39;100.00
32747;BME280;19118;50.860;13.662;2022-09-21T19:55:32;97816.16;;;6.25;100.00
32747;BME280;19118;50.860;13.662;2022-09-21T20:00:55;97816.31;;;6.24;100.00
32747;BME280;19118;50.860;13.662;2022-09-21T20:06:05;97823.03;;;6.08;100.00
32747;BME280;19118;50.860;13.662;2022-09-21T20:11:19;97822.72;;;5.94;100.00
32747;BME280;19118;50.860;13.662;2022-09-21T20:21:33;97811.13;;;5.87;100.00
32747;BME280;19118;50.860;13.662;2022-09-21T20:26:35;97819.81;;;5.69;100.00
32747;BME280;19118;50.860;13.662;2022-09-21T20:31:35;97819.25;;;5.66;100.00
32747;BME280;19118;50.860;13.662;2022-09-21T20:36:36;97809.84;;;5.73;100.00
32747;BME280;19118;50.860;13.662;2022-09-21T20:41:37;97820.25;;;5.92;100.00
32747;BME280;19118;50.860;13.662;2022-09-21T20:46:38;97819.94;;;5.95;100.00
32747;BME280;19118;50.860;13.662;2022-09-21T20:51:39;97821.63;;;6.14;100.00
32747;BME280;19118;50.860;13.662;2022-09-21T20:56:39;97819.88;;;6.05;100.00
32747;BME280;19118;50.860;13.662;2022-09-21T21:01:40;97811.41;;;5.93;100.00
32747;BME280;19118;50.860;13.662;2022-09-21T21:06:40;97823.41;;;5.86;100.00
32747;BME280;19118;50.860;13.662;2022-09-21T21:11:41;97821.41;;;5.80;100.00
32747;BME280;19118;50.860;13.662;2022-09-21T21:16:41;97819.66;;;5.89;100.00
32747;BME280;19118;50.860;13.662;2022-09-21T21:21:42;97817.31;;;5.95;100.00
32747;BME280;19118;50.860;13.662;2022-09-21T21:26:42;97813.56;;;5.98;100.00
32747;BME280;19118;50.860;13.662;2022-09-21T21:31:44;97809.28;;;5.97;100.00
32747;BME280;19118;50.860;13.662;2022-09-21T21:36:45;97808.31;;;5.98;100.00
32747;BME280;19118;50.860;13.662;2022-09-21T21:41:45;97800.59;;;5.96;100.00
32747;BME280;19118;50.860;13.662;2022-09-21T21:46:46;97794.38;;;6.15;100.00
32747;BME280;19118;50.860;13.662;2022-09-21T21:51:47;97791.63;;;6.17;100.00
32747;BME280;19118;50.860;13.662;2022-09-21T21:56:49;97793.38;;;6.34;100.00
32747;BME280;19118;50.860;13.662;2022-09-21T22:01:50;97785.00;;;6.48;100.00
32747;BME280;19118;50.860;13.662;2022-09-21T22:06:52;97794.59;;;6.57;100.00
32747;BME280;19118;50.860;13.662;2022-09-21T22:11:52;97789.03;;;6.60;100.00
32747;BME280;19118;50.860;13.662;2022-09-21T22:16:52;97782.28;;;6.58;100.00
32747;BME280;19118;50.860;13.662;2022-09-21T22:21:53;97793.66;;;6.66;100.00
32747;BME280;19118;50.860;13.662;2022-09-21T22:26:53;97776.97;;;6.76;100.00
32747;BME280;19118;50.860;13.662;2022-09-21T22:31:54;97775.38;;;6.83;100.00
32747;BME280;19118;50.860;13.662;2022-09-21T22:36:57;97773.56;;;6.83;100.00
32747;BME280;19118;50.860;13.662;2022-09-21T22:41:57;97771.41;;;6.79;100.00
32747;BME280;19118;50.860;13.662;2022-09-21T22:46:59;97770.06;;;6.75;100.00
32747;BME280;19118;50.860;13.662;2022-09-21T22:51:59;97767.91;;;6.70;100.00
32747;BME280;19118;50.860;13.662;2022-09-21T22:56:59;97773.34;;;6.77;100.00
32747;BME280;19118;50.860;13.662;2022-09-21T23:02:00;97773.06;;;6.80;100.00
32747;BME280;19118;50.860;13.662;2022-09-21T23:07:00;97771.13;;;6.90;100.00
32747;BME280;19118;50.860;13.662;2022-09-21T23:12:00;97770.22;;;6.99;100.00
32747;BME280;19118;50.860;13.662;2022-09-21T23:17:01;97764.94;;;6.99;100.00
32747;BME280;19118;50.860;13.662;2022-09-21T23:22:01;97766.56;;;6.92;100.00
32747;BME280;19118;50.860;13.662;2022-09-21T23:27:02;97763.25;;;6.90;100.00
32747;BME280;19118;50.860;13.662;2022-09-21T23:32:02;97769.53;;;6.97;100.00
32747;BME280;19118;50.860;13.662;2022-09-21T23:37:03;97760.34;;;7.01;100.00
32747;BME280;19118;50.860;13.662;2022-09-21T23:42:04;97765.28;;;6.96;100.00
32747;BME280;19118;50.860;13.662;2022-09-21T23:47:04;97761.97;;;6.94;100.00
32747;BME280;19118;50.860;13.662;2022-09-21T23:52:05;97752.63;;;6.99;100.00
32747;BME280;19118;50.860;13.662;2022-09-21T23:57:06;97762.31;;;6.99;100.00
